sensor_id;sensor_type;location;lat;lon;timestamp;temperature;humidity
25923;DHT22;13725;51.170;4.442;2022-09-27T00:01:19;10.90;99.90
25923;DHT22;13725;51.170;4.442;2022-09-27T00:03:45;10.90;99.90
25923;DHT22;13725;51.170;4.442;2022-09-27T00:06:28;10.90;99.90
25923;DHT22;13725;51.170;4.442;2022-09-27T00:08:54;10.90;99.90
25923;DHT22;13725;51.170;4.442;2022-09-27T00:11:34;11.00;99.90
25923;DHT22;13725;51.170;4.442;2022-09-27T00:14:00;11.00;99.90
25923;DHT22;13725;51.170;4.442;2022-09-27T00:16:29;11.00;99.90
25923;DHT22;13725;51.170;4.442;2022-09-27T00:18:59;11.00;99.90
25923;DHT22;13725;51.170;4.442;2022-09-27T00:21:26;11.00;99.90
25923;DHT22;13725;51.170;4.442;2022-09-27T00:23:53;11.10;99.90
25923;DHT22;13725;51.170;4.442;2022-09-27T00:26:18;11.00;99.90
25923;DHT22;13725;51.170;4.442;2022-09-27T00:28:44;11.00;99.90
25923;DHT22;13725;51.170;4.442;2022-09-27T00:31:16;11.00;99.90
25923;DHT22;13725;51.170;4.442;2022-09-27T00:33:45;11.00;99.90
25923;DHT22;13725;51.170;4.442;2022-09-27T00:36:11;10.90;99.90
25923;DHT22;13725;51.170;4.442;2022-09-27T00:38:39;10.90;99.90
25923;DHT22;13725;51.170;4.442;2022-09-27T00:41:05;10.90;99.90
25923;DHT22;13725;51.170;4.442;2022-09-27T00:43:55;10.90;99.90
25923;DHT22;13725;51.170;4.442;2022-09-27T00:46:38;10.90;99.90
25923;DHT22;13725;51.170;4.442;2022-09-27T00:52:13;10.90;99.90
25923;DHT22;13725;51.170;4.442;2022-09-27T00:54:43;10.90;99.90
25923;DHT22;13725;51.170;4.442;2022-09-27T00:57:10;10.90;99.90
25923;DHT22;13725;51.170;4.442;2022-09-27T00:59:44;10.80;99.90
25923;DHT22;13725;51.170;4.442;2022-09-27T01:02:11;10.90;99.90
25923;DHT22;13725;51.170;4.442;2022-09-27T01:04:38;10.90;99.90
25923;DHT22;13725;51.170;4.442;2022-09-27T01:07:05;10.90;99.90
25923;DHT22;13725;51.170;4.442;2022-09-27T01:09:32;10.90;99.90
25923;DHT22;13725;51.170;4.442;2022-09-27T01:14:57;11.00;99.90
25923;DHT22;13725;51.170;4.442;2022-09-27T01:33:45;10.50;99.90
25923;DHT22;13725;51.170;4.442;2022-09-27T01:45:42;10.20;99.90
25923;DHT22;13725;51.170;4.442;2022-09-27T01:48:22;10.20;99.90
25923;DHT22;13725;51.170;4.442;2022-09-27T01:51:08;10.30;99.90
25923;DHT22;13725;51.170;4.442;2022-09-27T01:53:46;10.20;99.90
25923;DHT22;13725;51.170;4.442;2022-09-27T01:56:53;10.10;99.90
25923;DHT22;13725;51.170;4.442;2022-09-27T01:59:31;10.20;99.90
25923;DHT22;13725;51.170;4.442;2022-09-27T02:02:20;10.10;99.90
25923;DHT22;13725;51.170;4.442;2022-09-27T02:05:08;10.10;99.90
25923;DHT22;13725;51.170;4.442;2022-09-27T02:07:52;10.10;99.90
25923;DHT22;13725;51.170;4.442;2022-09-27T02:10:24;10.00;99.90
25923;DHT22;13725;51.170;4.442;2022-09-27T02:13:02;10.10;99.90
25923;DHT22;13725;51.170;4.442;2022-09-27T02:15:39;10.00;99.90
25923;DHT22;13725;51.170;4.442;2022-09-27T02:18:31;10.00;99.90
25923;DHT22;13725;51.170;4.442;2022-09-27T02:21:01;9.90;99.90
25923;DHT22;13725;51.170;4.442;2022-09-27T02:23:42;10.00;99.90
25923;DHT22;13725;51.170;4.442;2022-09-27T02:26:28;9.90;99.90
25923;DHT22;13725;51.170;4.442;2022-09-27T02:29:03;9.90;99.90
25923;DHT22;13725;51.170;4.442;2022-09-27T02:31:35;9.90;99.90
25923;DHT22;13725;51.170;4.442;2022-09-27T02:34:11;9.90;99.90
25923;DHT22;13725;51.170;4.442;2022-09-27T02:36:38;9.80;99.90
25923;DHT22;13725;51.170;4.442;2022-09-27T02:39:05;9.80;99.90
25923;DHT22;13725;51.170;4.442;2022-09-27T02:41:32;10.00;99.90
25923;DHT22;13725;51.170;4.442;2022-09-27T02:44:03;9.70;99.90
25923;DHT22;13725;51.170;4.442;2022-09-27T02:52:27;9.80;99.90
25923;DHT22;13725;51.170;4.442;2022-09-27T02:55:29;9.80;99.90
25923;DHT22;13725;51.170;4.442;2022-09-27T02:58:20;9.80;99.90
25923;DHT22;13725;51.170;4.442;2022-09-27T03:01:17;9.70;99.90
25923;DHT22;13725;51.170;4.442;2022-09-27T03:04:18;9.70;99.90
25923;DHT22;13725;51.170;4.442;2022-09-27T03:06:48;9.80;99.90
25923;DHT22;13725;51.170;4.442;2022-09-27T03:09:20;9.70;99.90
25923;DHT22;13725;51.170;4.442;2022-09-27T03:11:46;9.70;99.90
25923;DHT22;13725;51.170;4.442;2022-09-27T03:14:12;9.70;99.90
25923;DHT22;13725;51.170;4.442;2022-09-27T03:16:48;9.70;99.90
25923;DHT22;13725;51.170;4.442;2022-09-27T03:19:33;9.70;99.90
25923;DHT22;13725;51.170;4.442;2022-09-27T03:22:19;9.70;99.90
25923;DHT22;13725;51.170;4.442;2022-09-27T03:24:46;9.70;99.90
25923;DHT22;13725;51.170;4.442;2022-09-27T03:27:12;9.70;99.90
25923;DHT22;13725;51.170;4.442;2022-09-27T03:29:38;9.70;99.90
25923;DHT22;13725;51.170;4.442;2022-09-27T03:32:06;9.60;99.90
25923;DHT22;13725;51.170;4.442;2022-09-27T03:34:50;9.60;99.90
25923;DHT22;13725;51.170;4.442;2022-09-27T03:37:16;9.50;99.90
25923;DHT22;13725;51.170;4.442;2022-09-27T03:39:42;9.60;99.90
25923;DHT22;13725;51.170;4.442;2022-09-27T03:42:08;9.50;99.90
25923;DHT22;13725;51.170;4.442;2022-09-27T03:44:36;9.50;99.90
25923;DHT22;13725;51.170;4.442;2022-09-27T03:47:02;9.60;99.90
25923;DHT22;13725;51.170;4.442;2022-09-27T03:49:28;9.60;99.90
25923;DHT22;13725;51.170;4.442;2022-09-27T03:51:53;9.70;99.90
25923;DHT22;13725;51.170;4.442;2022-09-27T03:54:19;9.80;99.90
25923;DHT22;13725;51.170;4.442;2022-09-27T03:56:45;9.70;99.90
25923;DHT22;13725;51.170;4.442;2022-09-27T03:59:11;9.80;99.90
25923;DHT22;13725;51.170;4.442;2022-09-27T04:01:57;9.80;99.90
25923;DHT22;13725;51.170;4.442;2022-09-27T04:04:43;9.80;99.90
25923;DHT22;13725;51.170;4.442;2022-09-27T04:07:09;9.80;99.90
25923;DHT22;13725;51.170;4.442;2022-09-27T04:09:35;9.90;99.90
25923;DHT22;13725;51.170;4.442;2022-09-27T04:12:03;9.90;99.90
25923;DHT22;13725;51.170;4.442;2022-09-27T04:14:31;9.90;99.90
25923;DHT22;13725;51.170;4.442;2022-09-27T04:17:34;9.90;99.90
25923;DHT22;13725;51.170;4.442;2022-09-27T04:20:29;9.90;99.90
25923;DHT22;13725;51.170;4.442;2022-09-27T04:22:56;9.90;99.90
25923;DHT22;13725;51.170;4.442;2022-09-27T04:25:21;10.00;99.90
25923;DHT22;13725;51.170;4.442;2022-09-27T04:27:49;10.00;99.90
25923;DHT22;13725;51.170;4.442;2022-09-27T04:30:21;10.00;99.90
25923;DHT22;13725;51.170;4.442;2022-09-27T04:33:13;10.00;99.90
25923;DHT22;13725;51.170;4.442;2022-09-27T04:35:57;10.00;99.90
25923;DHT22;13725;51.170;4.442;2022-09-27T04:38:59;9.90;99.90
25923;DHT22;13725;51.170;4.442;2022-09-27T04:41:26;10.00;99.90
25923;DHT22;13725;51.170;4.442;2022-09-27T04:43:54;10.00;99.90
25923;DHT22;13725;51.170;4.442;2022-09-27T04:46:20;9.90;99.90
25923;DHT22;13725;51.170;4.442;2022-09-27T04:48:47;10.00;99.90
25923;DHT22;13725;51.170;4.442;2022-09-27T04:51:13;10.00;99.90
25923;DHT22;13725;51.170;4.442;2022-09-27T04:53:45;10.00;99.90
25923;DHT22;13725;51.170;4.442;2022-09-27T04:56:12;10.00;99.90
25923;DHT22;13725;51.170;4.442;2022-09-27T04:58:38;10.00;99.90
25923;DHT22;13725;51.170;4.442;2022-09-27T05:01:05;10.00;99.90
25923;DHT22;13725;51.170;4.442;2022-09-27T05:03:51;10.00;99.90
25923;DHT22;13725;51.170;4.442;2022-09-27T05:06:17;10.10;99.90
25923;DHT22;13725;51.170;4.442;2022-09-27T05:08:43;10.00;99.90
25923;DHT22;13725;51.170;4.442;2022-09-27T05:11:29;10.00;99.90
25923;DHT22;13725;51.170;4.442;2022-09-27T05:14:18;10.00;99.90
25923;DHT22;13725;51.170;4.442;2022-09-27T05:17:03;10.00;99.90
25923;DHT22;13725;51.170;4.442;2022-09-27T05:19:47;10.00;99.90
25923;DHT22;13725;51.170;4.442;2022-09-27T05:22:32;10.00;99.90
25923;DHT22;13725;51.170;4.442;2022-09-27T05:24:58;10.00;99.90
25923;DHT22;13725;51.170;4.442;2022-09-27T05:27:23;10.10;99.90
25923;DHT22;13725;51.170;4.442;2022-09-27T05:29:50;10.00;99.90
25923;DHT22;13725;51.170;4.442;2022-09-27T05:32:24;10.00;99.90
25923;DHT22;13725;51.170;4.442;2022-09-27T05:35:03;10.00;99.90
25923;DHT22;13725;51.170;4.442;2022-09-27T05:37:28;10.00;99.90
25923;DHT22;13725;51.170;4.442;2022-09-27T05:39:57;10.00;99.90
25923;DHT22;13725;51.170;4.442;2022-09-27T05:42:23;10.00;99.90
25923;DHT22;13725;51.170;4.442;2022-09-27T05:44:48;10.00;99.90
25923;DHT22;13725;51.170;4.442;2022-09-27T05:47:15;10.00;99.90
25923;DHT22;13725;51.170;4.442;2022-09-27T05:49:41;10.00;99.90
25923;DHT22;13725;51.170;4.442;2022-09-27T05:52:10;9.90;99.90
25923;DHT22;13725;51.170;4.442;2022-09-27T05:54:36;9.90;99.90
25923;DHT22;13725;51.170;4.442;2022-09-27T05:57:03;9.80;99.90
25923;DHT22;13725;51.170;4.442;2022-09-27T05:59:39;9.90;99.90
25923;DHT22;13725;51.170;4.442;2022-09-27T06:02:29;9.80;99.90
25923;DHT22;13725;51.170;4.442;2022-09-27T06:05:13;9.80;99.90
25923;DHT22;13725;51.170;4.442;2022-09-27T06:07:39;9.80;99.90
25923;DHT22;13725;51.170;4.442;2022-09-27T06:10:08;9.80;99.90
25923;DHT22;13725;51.170;4.442;2022-09-27T06:12:34;9.90;99.90
25923;DHT22;13725;51.170;4.442;2022-09-27T06:15:02;9.90;99.90
25923;DHT22;13725;51.170;4.442;2022-09-27T06:17:45;9.90;99.90
25923;DHT22;13725;51.170;4.442;2022-09-27T06:20:19;10.00;99.90
25923;DHT22;13725;51.170;4.442;2022-09-27T06:22:46;10.00;99.90
25923;DHT22;13725;51.170;4.442;2022-09-27T06:25:12;10.00;99.90
25923;DHT22;13725;51.170;4.442;2022-09-27T06:28:01;10.00;99.90
25923;DHT22;13725;51.170;4.442;2022-09-27T06:30:29;10.10;99.90
25923;DHT22;13725;51.170;4.442;2022-09-27T06:32:56;10.20;99.90
25923;DHT22;13725;51.170;4.442;2022-09-27T06:35:43;10.20;99.90
25923;DHT22;13725;51.170;4.442;2022-09-27T06:38:12;10.20;99.90
25923;DHT22;13725;51.170;4.442;2022-09-27T06:40:46;10.20;99.90
25923;DHT22;13725;51.170;4.442;2022-09-27T06:43:20;10.20;99.90
25923;DHT22;13725;51.170;4.442;2022-09-27T06:46:12;10.20;99.90
25923;DHT22;13725;51.170;4.442;2022-09-27T06:49:13;10.30;99.90
25923;DHT22;13725;51.170;4.442;2022-09-27T06:51:40;10.30;99.90
25923;DHT22;13725;51.170;4.442;2022-09-27T06:54:06;10.20;99.90
25923;DHT22;13725;51.170;4.442;2022-09-27T06:56:32;10.40;99.90
25923;DHT22;13725;51.170;4.442;2022-09-27T06:58:59;10.50;99.90
25923;DHT22;13725;51.170;4.442;2022-09-27T07:01:44;10.50;99.90
25923;DHT22;13725;51.170;4.442;2022-09-27T07:04:28;10.60;99.90
25923;DHT22;13725;51.170;4.442;2022-09-27T07:07:03;10.50;99.90
25923;DHT22;13725;51.170;4.442;2022-09-27T07:09:42;10.50;99.90
25923;DHT22;13725;51.170;4.442;2022-09-27T07:12:10;10.60;99.90
25923;DHT22;13725;51.170;4.442;2022-09-27T07:14:36;10.60;99.90
25923;DHT22;13725;51.170;4.442;2022-09-27T07:17:03;10.60;99.90
25923;DHT22;13725;51.170;4.442;2022-09-27T07:19:35;10.60;99.90
25923;DHT22;13725;51.170;4.442;2022-09-27T07:22:00;10.70;99.90
25923;DHT22;13725;51.170;4.442;2022-09-27T07:24:27;10.70;99.90
25923;DHT22;13725;51.170;4.442;2022-09-27T07:26:54;10.70;99.90
25923;DHT22;13725;51.170;4.442;2022-09-27T07:29:20;10.70;99.90
25923;DHT22;13725;51.170;4.442;2022-09-27T07:31:48;10.80;99.90
25923;DHT22;13725;51.170;4.442;2022-09-27T07:34:14;11.10;99.90
25923;DHT22;13725;51.170;4.442;2022-09-27T07:36:42;11.40;99.90
25923;DHT22;13725;51.170;4.442;2022-09-27T07:39:08;11.70;99.90
25923;DHT22;13725;51.170;4.442;2022-09-27T07:41:34;11.80;99.90
25923;DHT22;13725;51.170;4.442;2022-09-27T07:44:00;11.90;99.90
25923;DHT22;13725;51.170;4.442;2022-09-27T07:46:29;11.90;99.90
25923;DHT22;13725;51.170;4.442;2022-09-27T07:49:07;11.90;99.90
25923;DHT22;13725;51.170;4.442;2022-09-27T07:51:51;11.90;99.90
25923;DHT22;13725;51.170;4.442;2022-09-27T07:54:37;12.00;99.90
25923;DHT22;13725;51.170;4.442;2022-09-27T07:57:12;11.80;99.90
25923;DHT22;13725;51.170;4.442;2022-09-27T07:59:46;11.60;99.90
25923;DHT22;13725;51.170;4.442;2022-09-27T08:02:15;11.50;99.90
25923;DHT22;13725;51.170;4.442;2022-09-27T08:04:42;11.30;99.90
25923;DHT22;13725;51.170;4.442;2022-09-27T08:07:09;11.20;99.90
25923;DHT22;13725;51.170;4.442;2022-09-27T08:09:36;11.10;99.90
25923;DHT22;13725;51.170;4.442;2022-09-27T08:12:02;11.10;99.90
25923;DHT22;13725;51.170;4.442;2022-09-27T08:14:30;11.10;99.90
25923;DHT22;13725;51.170;4.442;2022-09-27T08:16:56;11.10;99.90
25923;DHT22;13725;51.170;4.442;2022-09-27T08:19:27;11.10;99.90
25923;DHT22;13725;51.170;4.442;2022-09-27T08:22:02;11.20;99.90
25923;DHT22;13725;51.170;4.442;2022-09-27T08:24:38;11.20;99.90
25923;DHT22;13725;51.170;4.442;2022-09-27T08:27:09;11.20;99.90
25923;DHT22;13725;51.170;4.442;2022-09-27T08:29:50;11.20;99.90
25923;DHT22;13725;51.170;4.442;2022-09-27T08:32:16;11.20;99.90
25923;DHT22;13725;51.170;4.442;2022-09-27T08:34:43;11.20;99.90
25923;DHT22;13725;51.170;4.442;2022-09-27T08:37:09;11.20;99.90
25923;DHT22;13725;51.170;4.442;2022-09-27T08:39:35;11.30;99.90
25923;DHT22;13725;51.170;4.442;2022-09-27T08:42:39;11.40;99.90
25923;DHT22;13725;51.170;4.442;2022-09-27T08:45:19;11.50;99.90
25923;DHT22;13725;51.170;4.442;2022-09-27T08:47:57;11.40;99.90
25923;DHT22;13725;51.170;4.442;2022-09-27T08:50:30;11.60;99.90
25923;DHT22;13725;51.170;4.442;2022-09-27T08:55:44;11.60;99.90
25923;DHT22;13725;51.170;4.442;2022-09-27T08:58:28;11.50;99.90
25923;DHT22;13725;51.170;4.442;2022-09-27T09:00:58;11.50;99.90
25923;DHT22;13725;51.170;4.442;2022-09-27T09:03:35;11.70;99.90
25923;DHT22;13725;51.170;4.442;2022-09-27T09:06:21;11.70;99.90
25923;DHT22;13725;51.170;4.442;2022-09-27T09:15:05;11.80;99.90
25923;DHT22;13725;51.170;4.442;2022-09-27T09:20:33;11.80;99.90
25923;DHT22;13725;51.170;4.442;2022-09-27T09:25:53;11.60;99.90
25923;DHT22;13725;51.170;4.442;2022-09-27T09:34:25;11.70;99.90
25923;DHT22;13725;51.170;4.442;2022-09-27T09:37:02;11.80;99.90
25923;DHT22;13725;51.170;4.442;2022-09-27T09:39:50;11.80;99.90
25923;DHT22;13725;51.170;4.442;2022-09-27T09:45:02;11.90;99.90
25923;DHT22;13725;51.170;4.442;2022-09-27T09:48:04;12.00;99.90
25923;DHT22;13725;51.170;4.442;2022-09-27T09:50:40;12.20;99.90
25923;DHT22;13725;51.170;4.442;2022-09-27T09:53:15;12.20;99.90
25923;DHT22;13725;51.170;4.442;2022-09-27T09:55:47;12.30;99.90
25923;DHT22;13725;51.170;4.442;2022-09-27T09:58:30;12.50;99.90
25923;DHT22;13725;51.170;4.442;2022-09-27T10:01:42;12.60;99.90
25923;DHT22;13725;51.170;4.442;2022-09-27T10:04:24;12.70;99.90
25923;DHT22;13725;51.170;4.442;2022-09-27T10:06:55;12.90;99.90
25923;DHT22;13725;51.170;4.442;2022-09-27T10:09:24;13.20;99.90
25923;DHT22;13725;51.170;4.442;2022-09-27T10:12:11;13.30;99.90
25923;DHT22;13725;51.170;4.442;2022-09-27T10:14:37;13.00;99.90
25923;DHT22;13725;51.170;4.442;2022-09-27T10:17:10;13.00;99.90
25923;DHT22;13725;51.170;4.442;2022-09-27T10:19:40;13.00;99.90
25923;DHT22;13725;51.170;4.442;2022-09-27T10:25:06;12.90;99.90
25923;DHT22;13725;51.170;4.442;2022-09-27T10:28:01;12.90;99.90
25923;DHT22;13725;51.170;4.442;2022-09-27T10:30:33;12.70;99.90
25923;DHT22;13725;51.170;4.442;2022-09-27T10:33:16;12.50;99.90
25923;DHT22;13725;51.170;4.442;2022-09-27T10:35:46;12.50;99.90
25923;DHT22;13725;51.170;4.442;2022-09-27T10:38:33;12.80;99.90
25923;DHT22;13725;51.170;4.442;2022-09-27T10:46:48;15.40;99.90
25923;DHT22;13725;51.170;4.442;2022-09-27T10:49:40;16.40;99.90
25923;DHT22;13725;51.170;4.442;2022-09-27T10:52:34;17.90;99.90
25923;DHT22;13725;51.170;4.442;2022-09-27T10:55:07;20.20;99.90
25923;DHT22;13725;51.170;4.442;2022-09-27T10:57:38;22.00;99.90
25923;DHT22;13725;51.170;4.442;2022-09-27T11:00:18;23.40;99.90
25923;DHT22;13725;51.170;4.442;2022-09-27T11:02:54;23.20;99.90
25923;DHT22;13725;51.170;4.442;2022-09-27T11:07:59;24.10;99.90
25923;DHT22;13725;51.170;4.442;2022-09-27T11:13:32;26.30;99.90
25923;DHT22;13725;51.170;4.442;2022-09-27T11:26:23;20.50;99.90
25923;DHT22;13725;51.170;4.442;2022-09-27T11:32:26;19.00;99.90
25923;DHT22;13725;51.170;4.442;2022-09-27T11:45:36;21.70;99.90
25923;DHT22;13725;51.170;4.442;2022-09-27T11:51:00;22.50;99.90
25923;DHT22;13725;51.170;4.442;2022-09-27T12:02:10;17.40;99.90
25923;DHT22;13725;51.170;4.442;2022-09-27T12:04:58;16.00;99.90
25923;DHT22;13725;51.170;4.442;2022-09-27T12:07:39;15.00;99.90
25923;DHT22;13725;51.170;4.442;2022-09-27T12:10:12;14.40;99.90
25923;DHT22;13725;51.170;4.442;2022-09-27T12:12:40;14.10;99.90
25923;DHT22;13725;51.170;4.442;2022-09-27T12:15:23;14.10;99.90
25923;DHT22;13725;51.170;4.442;2022-09-27T12:17:55;14.10;99.90
25923;DHT22;13725;51.170;4.442;2022-09-27T12:20:28;14.40;99.90
25923;DHT22;13725;51.170;4.442;2022-09-27T12:23:08;15.00;99.90
25923;DHT22;13725;51.170;4.442;2022-09-27T12:26:05;15.90;99.90
25923;DHT22;13725;51.170;4.442;2022-09-27T12:36:32;18.40;99.90
25923;DHT22;13725;51.170;4.442;2022-09-27T12:39:17;19.20;99.90
25923;DHT22;13725;51.170;4.442;2022-09-27T12:41:54;20.00;99.90
25923;DHT22;13725;51.170;4.442;2022-09-27T12:44:38;20.50;99.90
25923;DHT22;13725;51.170;4.442;2022-09-27T12:47:32;21.30;99.90
25923;DHT22;13725;51.170;4.442;2022-09-27T12:50:29;21.10;99.90
25923;DHT22;13725;51.170;4.442;2022-09-27T12:56:07;19.10;99.90
25923;DHT22;13725;51.170;4.442;2022-09-27T12:58:55;18.50;99.90
25923;DHT22;13725;51.170;4.442;2022-09-27T13:01:56;18.00;99.90
25923;DHT22;13725;51.170;4.442;2022-09-27T13:04:48;17.50;99.90
25923;DHT22;13725;51.170;4.442;2022-09-27T13:12:48;17.60;99.90
25923;DHT22;13725;51.170;4.442;2022-09-27T13:15:26;17.50;99.90
25923;DHT22;13725;51.170;4.442;2022-09-27T13:17:58;17.50;99.90
25923;DHT22;13725;51.170;4.442;2022-09-27T13:25:54;16.80;99.90
25923;DHT22;13725;51.170;4.442;2022-09-27T13:40:20;15.20;99.90
25923;DHT22;13725;51.170;4.442;2022-09-27T13:43:27;15.10;99.90
25923;DHT22;13725;51.170;4.442;2022-09-27T13:46:04;15.10;99.90
25923;DHT22;13725;51.170;4.442;2022-09-27T13:48:53;15.00;99.90
25923;DHT22;13725;51.170;4.442;2022-09-27T13:54:04;14.40;99.90
25923;DHT22;13725;51.170;4.442;2022-09-27T14:04:49;13.30;99.90
25923;DHT22;13725;51.170;4.442;2022-09-27T14:07:20;13.00;99.90
25923;DHT22;13725;51.170;4.442;2022-09-27T14:09:51;12.80;99.90
25923;DHT22;13725;51.170;4.442;2022-09-27T14:12:33;12.70;99.90
25923;DHT22;13725;51.170;4.442;2022-09-27T14:15:03;12.60;99.90
25923;DHT22;13725;51.170;4.442;2022-09-27T14:17:32;12.60;99.90
25923;DHT22;13725;51.170;4.442;2022-09-27T14:19:59;12.50;99.90
25923;DHT22;13725;51.170;4.442;2022-09-27T14:22:27;12.30;99.90
25923;DHT22;13725;51.170;4.442;2022-09-27T14:24:57;12.20;99.90
25923;DHT22;13725;51.170;4.442;2022-09-27T14:27:36;12.00;99.90
25923;DHT22;13725;51.170;4.442;2022-09-27T14:30:18;12.10;99.90
25923;DHT22;13725;51.170;4.442;2022-09-27T14:32:55;12.30;99.90
25923;DHT22;13725;51.170;4.442;2022-09-27T14:35:36;12.60;99.90
25923;DHT22;13725;51.170;4.442;2022-09-27T14:38:30;12.70;99.90
25923;DHT22;13725;51.170;4.442;2022-09-27T14:41:03;13.00;99.90
25923;DHT22;13725;51.170;4.442;2022-09-27T14:43:30;12.90;99.90
25923;DHT22;13725;51.170;4.442;2022-09-27T14:46:04;13.00;99.90
25923;DHT22;13725;51.170;4.442;2022-09-27T14:48:36;12.90;99.90
25923;DHT22;13725;51.170;4.442;2022-09-27T14:53:43;12.90;99.90
25923;DHT22;13725;51.170;4.442;2022-09-27T14:56:19;13.10;99.90
25923;DHT22;13725;51.170;4.442;2022-09-27T14:58:57;13.20;99.90
25923;DHT22;13725;51.170;4.442;2022-09-27T15:01:27;13.20;99.90
25923;DHT22;13725;51.170;4.442;2022-09-27T15:03:55;13.30;99.90
25923;DHT22;13725;51.170;4.442;2022-09-27T15:06:23;13.40;99.90
25923;DHT22;13725;51.170;4.442;2022-09-27T15:08:50;13.20;99.90
25923;DHT22;13725;51.170;4.442;2022-09-27T15:11:19;13.10;99.90
25923;DHT22;13725;51.170;4.442;2022-09-27T15:13:46;12.90;99.90
25923;DHT22;13725;51.170;4.442;2022-09-27T15:16:18;12.70;99.90
25923;DHT22;13725;51.170;4.442;2022-09-27T15:18:49;12.50;99.90
25923;DHT22;13725;51.170;4.442;2022-09-27T15:21:32;12.60;99.90
25923;DHT22;13725;51.170;4.442;2022-09-27T15:23:58;12.70;99.90
25923;DHT22;13725;51.170;4.442;2022-09-27T15:26:40;12.80;99.90
25923;DHT22;13725;51.170;4.442;2022-09-27T15:29:23;12.90;99.90
25923;DHT22;13725;51.170;4.442;2022-09-27T15:32:04;12.90;99.90
25923;DHT22;13725;51.170;4.442;2022-09-27T15:34:31;13.00;99.90
25923;DHT22;13725;51.170;4.442;2022-09-27T15:37:02;13.10;99.90
25923;DHT22;13725;51.170;4.442;2022-09-27T15:39:35;13.30;99.90
25923;DHT22;13725;51.170;4.442;2022-09-27T15:42:08;13.30;99.90
25923;DHT22;13725;51.170;4.442;2022-09-27T15:44:50;13.30;99.90
25923;DHT22;13725;51.170;4.442;2022-09-27T15:55:13;12.80;99.90
25923;DHT22;13725;51.170;4.442;2022-09-27T15:57:40;12.80;99.90
25923;DHT22;13725;51.170;4.442;2022-09-27T16:00:14;12.80;99.90
25923;DHT22;13725;51.170;4.442;2022-09-27T16:02:44;12.80;99.90
25923;DHT22;13725;51.170;4.442;2022-09-27T16:05:10;12.80;99.90
25923;DHT22;13725;51.170;4.442;2022-09-27T16:07:36;12.70;99.90
25923;DHT22;13725;51.170;4.442;2022-09-27T16:10:19;12.70;99.90
25923;DHT22;13725;51.170;4.442;2022-09-27T16:12:45;12.60;99.90
25923;DHT22;13725;51.170;4.442;2022-09-27T16:15:12;12.70;99.90
25923;DHT22;13725;51.170;4.442;2022-09-27T16:17:38;12.70;99.90
25923;DHT22;13725;51.170;4.442;2022-09-27T16:20:16;12.80;99.90
25923;DHT22;13725;51.170;4.442;2022-09-27T16:22:42;12.70;99.90
25923;DHT22;13725;51.170;4.442;2022-09-27T16:25:08;12.70;99.90
25923;DHT22;13725;51.170;4.442;2022-09-27T16:27:34;12.70;99.90
25923;DHT22;13725;51.170;4.442;2022-09-27T16:30:00;12.60;99.90
25923;DHT22;13725;51.170;4.442;2022-09-27T16:32:26;12.60;99.90
25923;DHT22;13725;51.170;4.442;2022-09-27T16:34:52;12.70;99.90
25923;DHT22;13725;51.170;4.442;2022-09-27T16:37:17;12.60;99.90
25923;DHT22;13725;51.170;4.442;2022-09-27T16:39:43;12.60;99.90
25923;DHT22;13725;51.170;4.442;2022-09-27T16:42:09;12.50;99.90
25923;DHT22;13725;51.170;4.442;2022-09-27T16:44:35;12.50;99.90
25923;DHT22;13725;51.170;4.442;2022-09-27T16:47:04;12.40;99.90
25923;DHT22;13725;51.170;4.442;2022-09-27T16:49:32;12.50;99.90
25923;DHT22;13725;51.170;4.442;2022-09-27T16:52:17;12.40;99.90
25923;DHT22;13725;51.170;4.442;2022-09-27T16:54:42;12.40;99.90
25923;DHT22;13725;51.170;4.442;2022-09-27T16:57:08;12.30;99.90
25923;DHT22;13725;51.170;4.442;2022-09-27T16:59:34;12.30;99.90
25923;DHT22;13725;51.170;4.442;2022-09-27T17:02:00;12.20;99.90
25923;DHT22;13725;51.170;4.442;2022-09-27T17:04:27;12.20;99.90
25923;DHT22;13725;51.170;4.442;2022-09-27T17:06:54;12.20;99.90
25923;DHT22;13725;51.170;4.442;2022-09-27T17:09:20;12.10;99.90
25923;DHT22;13725;51.170;4.442;2022-09-27T17:11:46;12.10;99.90
25923;DHT22;13725;51.170;4.442;2022-09-27T17:14:12;12.00;99.90
25923;DHT22;13725;51.170;4.442;2022-09-27T17:16:42;12.10;99.90
25923;DHT22;13725;51.170;4.442;2022-09-27T17:19:09;12.10;99.90
25923;DHT22;13725;51.170;4.442;2022-09-27T17:21:35;12.20;99.90
25923;DHT22;13725;51.170;4.442;2022-09-27T17:24:01;12.10;99.90
25923;DHT22;13725;51.170;4.442;2022-09-27T17:26:27;12.10;99.90
25923;DHT22;13725;51.170;4.442;2022-09-27T17:28:55;12.10;99.90
25923;DHT22;13725;51.170;4.442;2022-09-27T17:31:22;12.10;99.90
25923;DHT22;13725;51.170;4.442;2022-09-27T17:33:50;12.00;99.90
25923;DHT22;13725;51.170;4.442;2022-09-27T17:36:22;12.00;99.90
25923;DHT22;13725;51.170;4.442;2022-09-27T17:38:50;12.00;99.90
25923;DHT22;13725;51.170;4.442;2022-09-27T17:41:18;12.00;99.90
25923;DHT22;13725;51.170;4.442;2022-09-27T17:43:45;12.00;99.90
25923;DHT22;13725;51.170;4.442;2022-09-27T17:46:36;12.00;99.90
25923;DHT22;13725;51.170;4.442;2022-09-27T17:49:01;11.90;99.90
25923;DHT22;13725;51.170;4.442;2022-09-27T17:51:48;11.90;99.90
25923;DHT22;13725;51.170;4.442;2022-09-27T17:54:16;11.90;99.90
25923;DHT22;13725;51.170;4.442;2022-09-27T17:56:43;11.80;99.90
25923;DHT22;13725;51.170;4.442;2022-09-27T17:59:12;11.90;99.90
25923;DHT22;13725;51.170;4.442;2022-09-27T18:01:40;11.90;99.90
25923;DHT22;13725;51.170;4.442;2022-09-27T18:04:08;11.90;99.90
25923;DHT22;13725;51.170;4.442;2022-09-27T18:06:37;11.80;99.90
25923;DHT22;13725;51.170;4.442;2022-09-27T18:09:05;11.70;99.90
25923;DHT22;13725;51.170;4.442;2022-09-27T18:11:33;11.70;99.90
25923;DHT22;13725;51.170;4.442;2022-09-27T18:14:00;11.60;99.90
25923;DHT22;13725;51.170;4.442;2022-09-27T18:16:29;11.40;99.90
25923;DHT22;13725;51.170;4.442;2022-09-27T18:18:58;11.40;99.90
25923;DHT22;13725;51.170;4.442;2022-09-27T18:21:24;11.40;99.90
25923;DHT22;13725;51.170;4.442;2022-09-27T18:23:54;11.40;99.90
25923;DHT22;13725;51.170;4.442;2022-09-27T18:26:21;11.40;99.90
25923;DHT22;13725;51.170;4.442;2022-09-27T18:28:50;11.40;99.90
25923;DHT22;13725;51.170;4.442;2022-09-27T18:31:20;11.40;99.90
25923;DHT22;13725;51.170;4.442;2022-09-27T18:33:47;11.50;99.90
25923;DHT22;13725;51.170;4.442;2022-09-27T18:36:15;11.30;99.90
25923;DHT22;13725;51.170;4.442;2022-09-27T18:38:42;11.20;99.90
25923;DHT22;13725;51.170;4.442;2022-09-27T18:41:13;10.90;99.90
25923;DHT22;13725;51.170;4.442;2022-09-27T18:43:40;10.80;99.90
25923;DHT22;13725;51.170;4.442;2022-09-27T18:46:08;10.80;99.90
25923;DHT22;13725;51.170;4.442;2022-09-27T18:48:36;10.60;99.90
25923;DHT22;13725;51.170;4.442;2022-09-27T18:51:13;10.70;99.90
25923;DHT22;13725;51.170;4.442;2022-09-27T18:53:39;10.40;99.90
25923;DHT22;13725;51.170;4.442;2022-09-27T18:56:07;10.40;99.90
25923;DHT22;13725;51.170;4.442;2022-09-27T18:58:34;10.40;99.90